createdAt,value
2023-05-18T00:01:14.531Z,49.26
2023-05-18T00:03:42.507Z,49.42
2023-05-18T00:06:10.474Z,49.03
2023-05-18T00:08:37.961Z,49.40
2023-05-18T00:11:05.724Z,49.32
2023-05-18T00:13:33.540Z,49.59
2023-05-18T00:16:00.795Z,49.38
2023-05-18T00:18:28.489Z,50.39
2023-05-18T00:21:02.325Z,49.85
2023-05-18T00:23:33.329Z,49.91
2023-05-18T00:26:01.561Z,51.00
2023-05-18T00:28:28.986Z,50.51
2023-05-18T00:30:56.483Z,50.52
2023-05-18T00:33:23.651Z,50.58
2023-05-18T00:35:50.826Z,50.49
2023-05-18T00:38:18.377Z,50.91
2023-05-18T00:40:45.659Z,50.80
2023-05-18T00:43:13.022Z,50.42
2023-05-18T00:45:40.078Z,50.37
2023-05-18T00:48:07.427Z,50.60
2023-05-18T00:50:35.238Z,50.56
2023-05-18T00:53:02.415Z,50.58
2023-05-18T00:55:29.673Z,50.39
2023-05-18T00:57:57.152Z,50.19
2023-05-18T01:00:24.522Z,50.59
2023-05-18T01:02:53.205Z,50.98
2023-05-18T01:05:22.449Z,50.81
2023-05-18T01:07:50.658Z,50.81
2023-05-18T01:10:19.081Z,51.16
2023-05-18T01:13:04.464Z,51.27
2023-05-18T01:15:37.497Z,51.50
2023-05-18T01:18:43.798Z,51.12
2023-05-18T01:21:19.346Z,51.38
2023-05-18T01:24:05.196Z,51.59
2023-05-18T01:26:37.853Z,52.03
2023-05-18T01:29:10.210Z,52.33
2023-05-18T01:31:37.336Z,52.28
2023-05-18T01:34:04.569Z,52.32
2023-05-18T01:36:32.094Z,52.55
2023-05-18T01:39:01.838Z,52.57
2023-05-18T01:41:30.415Z,52.22
2023-05-18T01:44:12.721Z,52.12
2023-05-18T01:46:49.071Z,52.56
2023-05-18T01:49:19.362Z,52.08
2023-05-18T01:51:46.770Z,52.34
2023-05-18T01:54:16.282Z,52.24
2023-05-18T01:56:43.409Z,52.46
2023-05-18T01:59:11.053Z,52.62
2023-05-18T02:01:38.267Z,53.03
2023-05-18T02:04:10.229Z,53.74
2023-05-18T02:06:37.714Z,54.37
2023-05-18T02:09:05.780Z,54.79
2023-05-18T02:11:33.601Z,54.22
2023-05-18T02:14:01.705Z,54.22
2023-05-18T02:16:28.884Z,54.63
2023-05-18T02:18:56.368Z,54.84
2023-05-18T02:21:23.576Z,55.03
2023-05-18T02:23:50.729Z,55.21
2023-05-18T02:26:17.904Z,55.45
2023-05-18T02:28:52.716Z,55.46
2023-05-18T02:31:20.072Z,55.07
2023-05-18T02:33:47.248Z,55.12
2023-05-18T02:36:14.486Z,55.44
2023-05-18T02:38:43.590Z,55.33
2023-05-18T02:41:11.485Z,55.64
2023-05-18T02:43:38.695Z,55.83
2023-05-18T02:46:06.862Z,55.94
2023-05-18T02:48:34.340Z,57.30
2023-05-18T02:51:01.614Z,56.10
2023-05-18T02:53:28.749Z,56.61
2023-05-18T02:56:03.535Z,56.82
2023-05-18T02:58:50.964Z,57.72
2023-05-18T03:01:22.671Z,58.12
2023-05-18T03:03:53.321Z,58.43
2023-05-18T03:06:26.918Z,58.75
2023-05-18T03:08:54.812Z,59.48
2023-05-18T03:11:24.097Z,59.70
2023-05-18T03:13:51.426Z,59.72
2023-05-18T03:16:19.032Z,59.41
2023-05-18T03:18:47.079Z,59.86
2023-05-18T03:21:14.323Z,60.63
2023-05-18T03:23:41.731Z,59.67
2023-05-18T03:26:11.833Z,60.07
2023-05-18T03:28:39.391Z,61.08
2023-05-18T03:31:06.905Z,60.44
2023-05-18T03:33:34.101Z,59.88
2023-05-18T03:36:03.688Z,59.67
2023-05-18T03:38:31.604Z,59.50
2023-05-18T03:41:03.087Z,60.12
2023-05-18T03:43:32.771Z,60.57
2023-05-18T03:46:01.056Z,60.25
2023-05-18T03:48:28.340Z,60.08
2023-05-18T03:50:55.909Z,59.89
2023-05-18T03:53:23.295Z,60.03
2023-05-18T03:55:51.885Z,59.60
2023-05-18T03:58:22.637Z,59.16
2023-05-18T04:00:49.899Z,59.15
2023-05-18T04:03:17.261Z,59.02
2023-05-18T04:05:44.867Z,58.89
2023-05-18T04:08:14.922Z,58.51
2023-05-18T04:10:43.387Z,58.66
2023-05-18T04:13:11.298Z,58.54
2023-05-18T04:15:38.671Z,59.01
2023-05-18T04:18:05.984Z,58.55
2023-05-18T04:20:33.242Z,58.04
2023-05-18T04:23:01.527Z,58.38
2023-05-18T04:25:29.009Z,58.55
2023-05-18T04:27:56.821Z,58.07
2023-05-18T04:30:27.018Z,57.50
2023-05-18T04:32:54.860Z,58.01
2023-05-18T04:35:22.275Z,57.64
2023-05-18T04:37:49.968Z,57.00
2023-05-18T04:40:18.192Z,57.06
2023-05-18T04:42:48.692Z,56.95
2023-05-18T04:45:34.565Z,57.18
2023-05-18T04:48:02.307Z,56.81
2023-05-18T04:50:29.894Z,56.35
2023-05-18T04:52:58.182Z,56.18
2023-05-18T04:55:28.631Z,55.88
2023-05-18T04:58:00.578Z,55.60
2023-05-18T05:00:29.417Z,55.33
2023-05-18T05:02:57.186Z,55.67
2023-05-18T05:05:24.598Z,55.74
2023-05-18T05:07:52.721Z,55.59
2023-05-18T05:10:20.933Z,55.22
2023-05-18T05:12:49.938Z,56.13
2023-05-18T05:15:18.029Z,55.40
2023-05-18T05:17:47.260Z,55.25
2023-05-18T05:20:14.578Z,55.12
2023-05-18T05:22:42.611Z,54.74
2023-05-18T05:25:11.688Z,54.65
2023-05-18T05:27:39.690Z,54.53
2023-05-18T05:30:07.697Z,54.39
2023-05-18T05:32:36.988Z,54.16
2023-05-18T05:35:06.545Z,53.87
2023-05-18T05:37:35.102Z,53.96
2023-05-18T05:40:02.265Z,53.73
2023-05-18T05:42:32.828Z,53.30
2023-05-18T05:45:00.151Z,52.94
2023-05-18T05:47:28.257Z,52.63
2023-05-18T05:49:55.508Z,52.11
2023-05-18T05:52:22.949Z,51.68
2023-05-18T05:54:51.302Z,51.31
2023-05-18T05:57:18.884Z,51.43
2023-05-18T05:59:46.186Z,51.66
2023-05-18T06:02:15.188Z,51.41
2023-05-18T06:04:42.421Z,50.76
2023-05-18T06:07:09.957Z,50.90
2023-05-18T06:09:37.514Z,50.55
2023-05-18T06:12:05.129Z,50.65
2023-05-18T06:14:34.043Z,49.57
2023-05-18T06:17:01.486Z,49.61
2023-05-18T06:19:28.636Z,49.42
2023-05-18T06:21:56.029Z,49.00
2023-05-18T06:24:25.456Z,48.47
2023-05-18T06:27:16.991Z,48.10
2023-05-18T06:29:53.263Z,48.13
2023-05-18T06:32:46.746Z,47.21
2023-05-18T06:35:13.936Z,46.82
2023-05-18T06:37:41.221Z,46.32
2023-05-18T06:40:09.492Z,46.57
2023-05-18T06:42:36.826Z,46.42
2023-05-18T06:45:24.051Z,45.92
2023-05-18T06:47:54.207Z,45.94
2023-05-18T06:50:21.621Z,45.00
2023-05-18T06:52:48.900Z,44.50
2023-05-18T06:55:16.346Z,43.84
2023-05-18T06:57:43.628Z,44.16
2023-05-18T07:00:12.712Z,43.45
2023-05-18T07:02:41.386Z,42.78
2023-05-18T07:05:09.464Z,41.84
2023-05-18T07:07:37.999Z,40.44
2023-05-18T07:10:06.185Z,39.95
2023-05-18T07:12:33.417Z,39.87
2023-05-18T07:15:00.680Z,39.12
2023-05-18T07:17:27.942Z,38.84
2023-05-18T07:19:55.062Z,39.17
2023-05-18T07:22:22.355Z,37.91
2023-05-18T07:24:49.506Z,36.17
2023-05-18T07:27:16.578Z,36.29
2023-05-18T07:29:43.953Z,37.04
2023-05-18T07:32:11.202Z,35.88
2023-05-18T07:34:38.616Z,35.41
2023-05-18T07:37:06.030Z,35.78
2023-05-18T07:39:33.136Z,35.67
2023-05-18T07:42:00.277Z,35.34
2023-05-18T07:44:27.452Z,34.64
2023-05-18T07:46:54.682Z,33.84
2023-05-18T07:49:23.521Z,33.74
2023-05-18T07:51:51.369Z,33.85
2023-05-18T07:54:18.391Z,33.08
2023-05-18T07:56:45.483Z,33.05
2023-05-18T07:59:12.696Z,33.05
2023-05-18T08:01:40.990Z,33.50
2023-05-18T08:04:08.284Z,33.53
2023-05-18T08:06:35.473Z,32.61
2023-05-18T08:09:02.609Z,32.69
2023-05-18T08:11:29.789Z,32.64
2023-05-18T08:13:57.016Z,32.49
2023-05-18T08:16:24.184Z,32.66
2023-05-18T08:18:51.448Z,31.97
2023-05-18T08:21:18.727Z,31.56
2023-05-18T08:23:46.955Z,30.07
2023-05-18T08:26:14.438Z,31.83
2023-05-18T08:28:42.230Z,31.69
2023-05-18T08:31:09.384Z,30.99
2023-05-18T08:33:36.640Z,31.50
2023-05-18T08:36:04.173Z,30.97
2023-05-18T08:38:32.309Z,30.32
2023-05-18T08:41:06.314Z,30.57
2023-05-18T08:43:33.605Z,30.48
2023-05-18T08:46:26.935Z,30.03
2023-05-18T08:48:54.333Z,29.37
2023-05-18T08:51:22.019Z,29.80
2023-05-18T08:53:53.053Z,28.09
2023-05-18T08:56:23.897Z,28.83
2023-05-18T08:58:53.777Z,29.23
2023-05-18T09:01:21.277Z,28.79
2023-05-18T09:03:51.314Z,27.30
2023-05-18T09:06:18.672Z,28.38
2023-05-18T09:08:45.808Z,28.28
2023-05-18T09:11:13.282Z,27.96
2023-05-18T09:13:40.485Z,27.47
2023-05-18T09:16:08.368Z,27.95
2023-05-18T09:18:35.947Z,27.60
2023-05-18T09:21:03.083Z,27.76
2023-05-18T09:23:30.861Z,27.70
2023-05-18T09:25:57.982Z,27.77
2023-05-18T09:28:37.861Z,27.05
2023-05-18T09:31:07.954Z,27.76
2023-05-18T09:33:39.486Z,26.67
2023-05-18T09:36:07.904Z,26.21
2023-05-18T09:38:38.756Z,26.80
2023-05-18T09:41:10.517Z,26.29
2023-05-18T09:43:37.708Z,26.81
2023-05-18T09:46:08.456Z,26.90
2023-05-18T09:48:37.358Z,26.61
2023-05-18T09:51:06.908Z,26.45
2023-05-18T09:53:39.981Z,26.88
2023-05-18T09:56:11.522Z,26.25
2023-05-18T09:58:39.630Z,26.89
2023-05-18T10:01:07.334Z,26.88
2023-05-18T10:03:37.107Z,26.75
2023-05-18T10:06:05.777Z,26.54
2023-05-18T10:08:33.876Z,25.85
2023-05-18T10:11:01.185Z,25.93
2023-05-18T10:13:29.173Z,26.30
2023-05-18T10:15:57.124Z,25.53
2023-05-18T10:18:28.464Z,25.94
2023-05-18T10:20:59.188Z,25.72
2023-05-18T10:23:30.533Z,25.15
2023-05-18T10:25:58.281Z,25.55
2023-05-18T10:28:30.973Z,25.15
2023-05-18T10:30:59.177Z,24.39
2023-05-18T10:33:29.438Z,24.78
2023-05-18T10:35:57.462Z,24.80
2023-05-18T10:38:28.398Z,24.24
2023-05-18T10:40:56.745Z,24.15
2023-05-18T10:43:27.671Z,23.87
2023-05-18T10:45:59.276Z,23.16
2023-05-18T10:48:27.280Z,23.31
2023-05-18T10:53:33.714Z,24.41
2023-05-18T10:56:01.852Z,22.62
2023-05-18T10:58:30.018Z,23.07
2023-05-18T11:01:01.683Z,22.49
2023-05-18T11:03:29.067Z,22.22
2023-05-18T11:06:07.185Z,22.04
2023-05-18T11:08:34.829Z,21.33
2023-05-18T11:11:03.308Z,22.31
2023-05-18T11:13:31.602Z,21.82
2023-05-18T11:16:01.687Z,21.95
2023-05-18T11:18:36.277Z,21.82
2023-05-18T11:21:03.568Z,21.12
2023-05-18T11:23:33.716Z,21.56
2023-05-18T11:26:03.301Z,21.98
2023-05-18T11:28:31.200Z,21.88
2023-05-18T11:30:58.449Z,21.80
2023-05-18T11:33:30.895Z,20.87
2023-05-18T11:36:01.301Z,20.87
2023-05-18T11:38:52.968Z,20.89
2023-05-18T11:41:47.781Z,21.17
2023-05-18T11:44:16.605Z,20.93
2023-05-18T11:46:54.004Z,20.39
2023-05-18T11:49:23.808Z,20.53
2023-05-18T11:51:58.896Z,20.83
2023-05-18T11:54:26.714Z,21.25
2023-05-18T11:56:53.940Z,20.73
2023-05-18T11:59:36.578Z,20.80
2023-05-18T12:02:04.535Z,21.13
2023-05-18T12:04:33.772Z,20.96
2023-05-18T12:07:04.465Z,20.70
2023-05-18T12:09:32.301Z,20.46
2023-05-18T12:11:59.660Z,20.01
2023-05-18T12:14:26.914Z,20.49
2023-05-18T12:16:54.367Z,20.49
2023-05-18T12:19:23.719Z,20.58
2023-05-18T12:21:50.967Z,20.24
2023-05-18T12:24:18.110Z,19.56
2023-05-18T12:26:46.882Z,20.21
2023-05-18T12:29:20.374Z,19.74
2023-05-18T12:31:48.245Z,19.74
2023-05-18T12:34:15.575Z,19.82
2023-05-18T12:36:51.867Z,20.28
2023-05-18T12:39:19.277Z,19.75
2023-05-18T12:41:46.325Z,19.96
2023-05-18T12:44:14.406Z,20.01
2023-05-18T12:46:42.090Z,19.60
2023-05-18T12:49:09.293Z,19.63
2023-05-18T12:51:37.905Z,20.02
2023-05-18T12:54:08.183Z,19.86
2023-05-18T12:56:52.844Z,19.74
2023-05-18T12:59:20.473Z,19.62
2023-05-18T13:01:47.763Z,19.65
2023-05-18T13:04:15.202Z,19.73
2023-05-18T13:06:42.743Z,19.62
2023-05-18T13:09:13.091Z,19.45
2023-05-18T13:11:40.534Z,19.88
2023-05-18T13:14:08.455Z,20.30
2023-05-18T13:16:38.361Z,20.88
2023-05-18T13:19:10.041Z,20.80
2023-05-18T13:21:37.587Z,20.83
2023-05-18T13:24:05.341Z,21.38
2023-05-18T13:26:33.215Z,21.04
2023-05-18T13:29:00.582Z,19.74
2023-05-18T13:31:29.916Z,19.55
2023-05-18T13:33:57.572Z,19.13
2023-05-18T13:36:24.771Z,19.05
2023-05-18T13:38:52.549Z,19.03
2023-05-18T13:41:19.840Z,19.31
2023-05-18T13:43:46.987Z,19.60
2023-05-18T13:46:14.141Z,19.21
2023-05-18T13:48:41.482Z,19.25
2023-05-18T13:51:08.664Z,19.38
2023-05-18T13:53:36.562Z,19.30
2023-05-18T13:56:05.566Z,20.14
2023-05-18T13:58:32.674Z,20.57
2023-05-18T14:01:04.171Z,19.93
2023-05-18T14:03:34.314Z,20.05
2023-05-18T14:06:01.481Z,19.68
2023-05-18T14:08:28.562Z,18.95
2023-05-18T14:10:55.778Z,19.64
2023-05-18T14:13:22.952Z,19.77
2023-05-18T14:15:50.108Z,19.24
2023-05-18T14:18:17.281Z,19.30
2023-05-18T14:20:45.024Z,19.02
2023-05-18T14:23:12.129Z,18.90
2023-05-18T14:25:39.536Z,19.25
2023-05-18T14:28:06.968Z,19.07
2023-05-18T14:30:34.022Z,19.23
2023-05-18T14:33:01.642Z,18.83
2023-05-18T14:35:28.650Z,19.23
2023-05-18T14:37:55.759Z,18.85
2023-05-18T14:40:23.100Z,19.10
2023-05-18T14:42:51.584Z,18.93
2023-05-18T14:45:20.896Z,18.95
2023-05-18T14:47:48.335Z,19.16
2023-05-18T14:50:15.510Z,18.98
2023-05-18T14:52:42.922Z,19.07
2023-05-18T14:55:10.149Z,18.86
2023-05-18T14:57:37.483Z,18.68
2023-05-18T15:00:05.019Z,19.06
2023-05-18T15:02:32.407Z,19.17
2023-05-18T15:04:59.855Z,19.34
2023-05-18T15:07:26.969Z,19.00
2023-05-18T15:09:55.526Z,19.23
2023-05-18T15:12:23.630Z,19.56
2023-05-18T15:14:50.867Z,19.26
2023-05-18T15:17:18.164Z,19.23
2023-05-18T15:19:45.357Z,19.41
2023-05-18T15:22:12.666Z,19.60
2023-05-18T15:24:40.023Z,19.72
2023-05-18T15:27:07.332Z,19.59
2023-05-18T15:29:35.500Z,19.70
2023-05-18T15:32:02.758Z,19.68
2023-05-18T15:34:33.456Z,19.33
2023-05-18T15:37:01.421Z,19.33
2023-05-18T15:39:29.228Z,19.49
2023-05-18T15:41:56.587Z,19.55
2023-05-18T15:44:23.890Z,19.40
2023-05-18T15:46:51.050Z,19.38
2023-05-18T15:49:19.022Z,19.54
2023-05-18T15:51:46.040Z,19.28
2023-05-18T15:54:13.358Z,19.50
2023-05-18T15:56:41.087Z,19.76
2023-05-18T15:59:08.834Z,19.91
2023-05-18T16:01:36.371Z,19.81
2023-05-18T16:04:03.755Z,19.90
2023-05-18T16:06:30.934Z,19.70
2023-05-18T16:08:58.340Z,20.26
2023-05-18T16:11:26.137Z,20.52
2023-05-18T16:13:57.059Z,20.54
2023-05-18T16:16:25.633Z,20.78
2023-05-18T16:18:53.156Z,20.73
2023-05-18T16:21:20.369Z,20.93
2023-05-18T16:23:47.619Z,21.22
2023-05-18T16:26:14.801Z,21.21
2023-05-18T16:28:42.056Z,21.37
2023-05-18T16:31:11.373Z,22.21
2023-05-18T16:33:38.741Z,21.40
2023-05-18T16:36:06.437Z,21.81
2023-05-18T16:38:37.857Z,22.14
2023-05-18T16:41:05.431Z,22.23
2023-05-18T16:43:32.906Z,23.00
2023-05-18T16:46:00.301Z,23.37
2023-05-18T16:48:27.617Z,23.91
2023-05-18T16:50:54.737Z,24.41
2023-05-18T16:53:21.928Z,25.70
2023-05-18T16:55:49.742Z,25.00
2023-05-18T16:58:17.176Z,25.52
2023-05-18T17:00:44.451Z,26.91
2023-05-18T17:03:11.934Z,26.37
2023-05-18T17:05:39.072Z,26.76
2023-05-18T17:08:06.232Z,27.35
2023-05-18T17:10:35.696Z,26.51
2023-05-18T17:13:02.981Z,27.49
2023-05-18T17:15:31.580Z,26.78
2023-05-18T17:17:59.313Z,27.76
2023-05-18T17:20:26.735Z,27.99
2023-05-18T17:22:54.072Z,27.31
2023-05-18T17:25:21.323Z,27.63
2023-05-18T17:27:48.482Z,27.02
2023-05-18T17:30:15.766Z,28.22
2023-05-18T17:32:45.647Z,28.77
2023-05-18T17:35:14.264Z,30.65
2023-05-18T17:37:41.746Z,30.25
2023-05-18T17:40:09.915Z,30.38
2023-05-18T17:42:37.250Z,30.50
2023-05-18T17:45:04.753Z,31.88
2023-05-18T17:47:31.986Z,30.27
2023-05-18T17:49:59.091Z,29.61
2023-05-18T17:52:27.039Z,29.91
2023-05-18T17:54:54.422Z,31.01
2023-05-18T17:57:23.142Z,30.59
2023-05-18T17:59:50.413Z,29.99
2023-05-18T18:02:17.509Z,29.69
2023-05-18T18:04:44.678Z,31.07
2023-05-18T18:07:11.853Z,30.67
2023-05-18T18:09:39.259Z,30.87
2023-05-18T18:12:06.858Z,30.78
2023-05-18T18:14:34.225Z,30.81
2023-05-18T18:17:01.429Z,31.14
2023-05-18T18:19:30.420Z,31.09
2023-05-18T18:21:57.881Z,30.97
2023-05-18T18:24:25.215Z,31.43
2023-05-18T18:26:52.906Z,31.43
2023-05-18T18:29:20.190Z,31.47
2023-05-18T18:31:47.363Z,31.74
2023-05-18T18:34:15.059Z,31.64
2023-05-18T18:36:42.669Z,31.83
2023-05-18T18:39:09.976Z,32.13
2023-05-18T18:41:37.095Z,32.43
2023-05-18T18:44:04.355Z,32.64
2023-05-18T18:46:31.716Z,32.45
2023-05-18T18:48:59.116Z,32.87
2023-05-18T18:51:26.399Z,32.98
2023-05-18T18:53:53.579Z,32.85
2023-05-18T18:56:21.733Z,32.88
2023-05-18T18:58:50.984Z,33.26
2023-05-18T19:01:18.416Z,33.56
2023-05-18T19:03:45.977Z,33.65
2023-05-18T19:06:14.903Z,33.85
2023-05-18T19:08:42.580Z,33.85
2023-05-18T19:11:09.764Z,34.14
2023-05-18T19:13:36.972Z,34.15
2023-05-18T19:16:04.409Z,34.35
2023-05-18T19:18:31.558Z,34.46
2023-05-18T19:21:01.585Z,34.59
2023-05-18T19:23:28.799Z,34.52
2023-05-18T19:25:56.057Z,34.50
2023-05-18T19:28:23.261Z,34.86
2023-05-18T19:30:50.465Z,35.98
2023-05-18T19:33:17.583Z,35.55
2023-05-18T19:35:44.997Z,35.12
2023-05-18T19:38:12.211Z,35.20
2023-05-18T19:40:39.482Z,35.05
2023-05-18T19:43:06.633Z,35.12
2023-05-18T19:45:34.241Z,35.06
2023-05-18T19:48:01.890Z,34.68
2023-05-18T19:50:29.075Z,34.83
2023-05-18T19:52:56.188Z,35.20
2023-05-18T19:55:23.223Z,35.47
2023-05-18T19:57:50.614Z,35.46
2023-05-18T20:00:17.962Z,35.34
2023-05-18T20:02:45.092Z,35.25
2023-05-18T20:05:13.357Z,35.32
2023-05-18T20:07:41.176Z,35.65
2023-05-18T20:10:08.180Z,35.76
2023-05-18T20:12:35.552Z,35.99
2023-05-18T20:15:02.811Z,36.41
2023-05-18T20:17:29.935Z,36.76
2023-05-18T20:19:57.185Z,37.13
2023-05-18T20:22:24.443Z,36.93
2023-05-18T20:24:51.679Z,36.60
2023-05-18T20:27:19.032Z,36.71
2023-05-18T20:29:46.751Z,36.69
2023-05-18T20:32:13.826Z,36.55
2023-05-18T20:34:41.638Z,36.77
2023-05-18T20:37:10.912Z,36.87
2023-05-18T20:39:40.110Z,37.21
2023-05-18T20:42:08.059Z,37.39
2023-05-18T20:44:35.349Z,37.48
2023-05-18T20:47:02.829Z,37.09
2023-05-18T20:49:30.157Z,37.02
2023-05-18T20:51:57.270Z,36.70
2023-05-18T20:54:24.304Z,37.14
2023-05-18T20:56:51.603Z,37.62
2023-05-18T20:59:19.262Z,37.96
2023-05-18T21:01:46.520Z,37.58
2023-05-18T21:04:14.271Z,37.88
2023-05-18T21:06:44.161Z,37.84
2023-05-18T21:09:12.027Z,37.39
2023-05-18T21:11:39.135Z,37.65
2023-05-18T21:14:06.335Z,37.33
2023-05-18T21:16:33.933Z,37.35
2023-05-18T21:19:01.696Z,37.43
2023-05-18T21:21:28.848Z,37.25
2023-05-18T21:23:56.177Z,37.60
2023-05-18T21:26:23.487Z,37.78
2023-05-18T21:28:50.947Z,37.95
2023-05-18T21:31:18.209Z,38.21
2023-05-18T21:33:48.508Z,38.45
2023-05-18T21:36:15.784Z,37.90
2023-05-18T21:38:43.146Z,38.07
2023-05-18T21:41:10.494Z,37.61
2023-05-18T21:43:37.685Z,37.47
2023-05-18T21:46:05.912Z,37.58
2023-05-18T21:48:34.372Z,38.36
2023-05-18T21:51:01.930Z,38.18
2023-05-18T21:53:29.123Z,38.11
2023-05-18T21:55:56.407Z,38.26
2023-05-18T21:58:24.750Z,38.15
2023-05-18T22:00:51.882Z,38.03
2023-05-18T22:03:19.203Z,37.90
2023-05-18T22:05:46.506Z,38.58
2023-05-18T22:08:13.554Z,38.27
2023-05-18T22:10:40.652Z,37.72
2023-05-18T22:13:07.832Z,37.77
2023-05-18T22:15:37.394Z,37.95
2023-05-18T22:18:04.992Z,38.35
2023-05-18T22:20:32.799Z,38.84
2023-05-18T22:23:00.279Z,38.67
2023-05-18T22:25:27.447Z,38.60
2023-05-18T22:27:54.790Z,38.34
2023-05-18T22:30:24.025Z,38.52
2023-05-18T22:32:52.055Z,38.59
2023-05-18T22:35:19.236Z,39.20
2023-05-18T22:37:46.664Z,38.65
2023-05-18T22:40:13.913Z,38.27
2023-05-18T22:42:41.201Z,38.46
2023-05-18T22:45:09.705Z,38.74
2023-05-18T22:47:39.024Z,38.71
2023-05-18T22:50:07.248Z,38.60
2023-05-18T22:52:35.145Z,38.24
2023-05-18T22:55:02.441Z,38.02
2023-05-18T22:57:29.599Z,38.02
2023-05-18T22:59:56.724Z,38.47
2023-05-18T23:02:23.846Z,38.59
2023-05-18T23:04:50.986Z,38.26
2023-05-18T23:10:35.238Z,41.35
2023-05-18T23:13:02.669Z,38.67
2023-05-18T23:15:30.562Z,39.47
2023-05-18T23:17:57.473Z,39.70
2023-05-18T23:20:24.942Z,39.82
2023-05-18T23:22:51.887Z,39.59
2023-05-18T23:25:19.387Z,39.62
2023-05-18T23:27:46.477Z,39.74
2023-05-18T23:30:13.240Z,39.46
2023-05-18T23:32:41.892Z,39.38
2023-05-18T23:35:11.914Z,40.69
2023-05-18T23:37:41.511Z,40.03
2023-05-18T23:40:12.173Z,40.13
2023-05-18T23:42:39.329Z,40.00
2023-05-18T23:45:06.954Z,39.75
2023-05-18T23:47:34.334Z,39.82
2023-05-18T23:50:01.739Z,39.69
2023-05-18T23:52:29.625Z,39.96
2023-05-18T23:54:58.223Z,39.82
2023-05-18T23:57:25.471Z,40.10
2023-05-18T23:59:52.487Z,39.72
